Time;durP1;ratioP1;P1;durP2;ratioP2;P2;SDS_P1;SDS_P2;PMS_P1;PMS_P2;Temp;Humidity;BMP_temperature;BMP_pressure;BME280_temperature;BME280_humidity;BME280_pressure;Samples;Min_cycle;Max_cycle;Signal;HPM_P1;HPM_P2
2023/04/25 00:01:40;;;;;;;1.93;1.30;;;;;;;-143.99;100.00;64180.81;6134768;28;20219;-71
2023/04/25 00:05:01;;;;;;;1.83;1.73;;;;;;;-143.99;100.00;64180.81;6132314;28;20226;-72
2023/04/25 00:08:23;;;;;;;3.73;2.20;;;;;;;-143.99;100.00;64180.81;6125258;28;20242;-71
2023/04/25 00:11:44;;;;;;;4.60;2.07;;;;;;;-143.99;100.00;64180.81;6137283;28;20254;-72
2023/04/25 00:15:06;;;;;;;2.77;1.57;;;;;;;-143.99;100.00;64180.81;6122656;28;20263;-71
2023/04/25 00:18:28;;;;;;;4.17;3.07;;;;;;;-143.99;100.00;64180.81;6128580;28;20691;-71
2023/04/25 00:21:49;;;;;;;9.63;2.63;;;;;;;-143.99;100.00;64180.81;6139133;28;20598;-71
2023/04/25 00:25:12;;;;;;;1.77;1.57;;;;;;;-143.99;100.00;64180.81;6131714;28;20231;-72
2023/04/25 00:28:34;;;;;;;6.87;2.17;;;;;;;-143.99;100.00;64180.81;6130361;28;20305;-72
2023/04/25 00:31:58;;;;;;;3.97;2.53;;;;;;;-143.99;100.00;64180.81;6130251;28;20239;-72
2023/04/25 00:35:19;;;;;;;6.77;2.13;;;;;;;-143.99;100.00;64180.81;6139139;28;20234;-72
2023/04/25 00:38:40;;;;;;;4.03;3.03;;;;;;;-143.99;100.00;64180.81;6139221;28;20234;-72
2023/04/25 00:42:03;;;;;;;6.50;3.23;;;;;;;-143.99;100.00;64180.81;6133877;28;21213;-73
2023/04/25 00:45:29;;;;;;;5.53;3.53;;;;;;;-143.99;100.00;64180.81;6138222;28;20239;-72
2023/04/25 00:48:49;;;;;;;7.13;2.70;;;;;;;-143.99;100.00;64180.81;6142627;28;20660;-72
2023/04/25 00:52:11;;;;;;;6.30;2.83;;;;;;;-143.99;100.00;64180.81;6136844;28;20609;-72
2023/04/25 00:55:34;;;;;;;7.67;3.83;;;;;;;-143.99;100.00;64180.81;6136936;28;20664;-73
2023/04/25 00:58:57;;;;;;;5.30;3.00;;;;;;;-143.99;100.00;64180.81;6149933;28;20238;-73
2023/04/25 01:02:18;;;;;;;7.33;3.80;;;;;;;-143.99;100.00;64180.81;6148185;28;20235;-73
2023/04/25 01:05:39;;;;;;;7.43;3.50;;;;;;;-143.99;100.00;64180.81;6140468;28;20232;-73
2023/04/25 01:09:00;;;;;;;9.93;4.47;;;;;;;-143.99;100.00;64180.81;6128804;28;20235;-71
2023/04/25 01:12:21;;;;;;;11.53;3.60;;;;;;;-143.99;100.00;64180.81;6145869;28;20605;-71
2023/04/25 01:15:44;;;;;;;7.40;2.90;;;;;;;-143.99;100.00;64180.81;6134305;28;20227;-74
2023/04/25 01:19:11;;;;;;;3.37;2.37;;;;;;;-143.99;100.00;64180.81;6129579;28;20243;-71
2023/04/25 01:22:34;;;;;;;6.20;2.43;;;;;;;-143.99;100.00;64180.81;6140929;28;20239;-72
2023/04/25 01:25:55;;;;;;;10.90;3.17;;;;;;;-143.99;100.00;64180.81;6134630;28;20243;-71
2023/04/25 01:29:17;;;;;;;10.83;3.30;;;;;;;-143.99;100.00;64180.81;6141595;28;20252;-72
2023/04/25 01:32:38;;;;;;;8.03;4.53;;;;;;;-143.99;100.00;64180.81;6128737;28;20235;-72
2023/04/25 01:36:00;;;;;;;6.80;2.97;;;;;;;-143.99;100.00;64180.81;6144533;28;20672;-72
2023/04/25 01:39:22;;;;;;;11.17;3.30;;;;;;;-143.99;100.00;64180.81;6147770;28;20250;-73
2023/04/25 01:42:47;;;;;;;4.40;3.80;;;;;;;-143.99;100.00;64180.81;6150441;28;20235;-72
2023/04/25 01:46:08;;;;;;;9.03;2.93;;;;;;;-143.99;100.00;64180.81;6150562;28;20625;-71
2023/04/25 01:49:29;;;;;;;3.10;2.33;;;;;;;-143.99;100.00;64180.81;6145132;28;20241;-72
2023/04/25 01:52:50;;;;;;;3.73;3.30;;;;;;;-143.99;100.00;64180.81;6138712;28;20263;-72
2023/04/25 01:56:12;;;;;;;5.67;3.97;;;;;;;-143.99;100.00;64180.81;6151661;28;20232;-71
2023/04/25 01:59:34;;;;;;;4.47;2.83;;;;;;;-143.99;100.00;64180.81;6155791;28;20253;-71
2023/04/25 02:03:01;;;;;;;4.67;2.67;;;;;;;-143.99;100.00;64180.81;6130620;28;20243;-73
2023/04/25 02:06:26;;;;;;;17.80;4.60;;;;;;;-143.99;100.00;64180.81;6137830;28;20234;-73
2023/04/25 02:09:51;;;;;;;5.37;3.43;;;;;;;-143.99;100.00;64180.81;6141157;28;20238;-72
2023/04/25 02:13:17;;;;;;;8.03;3.97;;;;;;;-143.99;100.00;64180.81;6126263;28;20239;-73
2023/04/25 02:16:53;;;;;;;5.60;3.67;;;;;;;-143.99;100.00;64180.81;6137200;28;20227;-73
2023/04/25 02:20:15;;;;;;;9.93;3.33;;;;;;;-143.99;100.00;64180.81;6134610;28;20234;-73
2023/04/25 02:23:48;;;;;;;6.00;3.07;;;;;;;-143.99;100.00;64180.81;6137235;28;20237;-73
2023/04/25 02:27:09;;;;;;;11.37;3.97;;;;;;;-143.99;100.00;64180.81;6142259;28;20246;-72
2023/04/25 02:30:32;;;;;;;6.43;4.30;;;;;;;-143.99;100.00;64180.81;6140639;28;20338;-72
2023/04/25 02:33:53;;;;;;;7.27;3.00;;;;;;;-143.99;100.00;64180.81;6128430;28;20321;-73
2023/04/25 02:37:14;;;;;;;9.43;3.43;;;;;;;-143.99;100.00;64180.81;6128643;28;20321;-73
2023/04/25 02:40:36;;;;;;;8.57;3.77;;;;;;;-143.99;100.00;64180.81;6133090;28;20273;-72
2023/04/25 02:43:57;;;;;;;7.27;3.30;;;;;;;-143.99;100.00;64180.81;6125017;28;20274;-72
2023/04/25 02:47:19;;;;;;;4.37;3.23;;;;;;;-143.99;100.00;64180.81;6128394;28;20235;-72
2023/04/25 02:50:42;;;;;;;5.07;2.90;;;;;;;-143.99;100.00;64180.81;6140178;28;20239;-72
2023/04/25 02:54:03;;;;;;;10.17;4.83;;;;;;;-143.99;100.00;64180.81;6133352;28;20235;-73
2023/04/25 02:57:27;;;;;;;7.20;5.13;;;;;;;-143.99;100.00;64180.81;6136212;28;20317;-73
2023/04/25 03:00:48;;;;;;;10.03;3.90;;;;;;;-143.99;100.00;64180.81;6106977;28;20234;-72
2023/04/25 03:04:12;;;;;;;6.33;3.30;;;;;;;-143.99;100.00;64180.81;6140641;28;20230;-72
2023/04/25 03:07:32;;;;;;;5.77;3.00;;;;;;;-143.99;100.00;64180.81;6133611;28;20255;-73
2023/04/25 03:10:55;;;;;;;8.97;4.07;;;;;;;-143.99;100.00;64180.81;6138475;28;20227;-72
2023/04/25 03:14:16;;;;;;;3.40;2.57;;;;;;;-143.99;100.00;64180.81;6148201;28;20242;-73
2023/04/25 03:17:37;;;;;;;5.37;3.50;;;;;;;-143.99;100.00;64180.81;6136196;28;20242;-72
2023/04/25 03:20:59;;;;;;;15.53;3.47;;;;;;;-143.99;100.00;64180.81;6111403;28;20235;-72
2023/04/25 03:24:20;;;;;;;8.17;4.00;;;;;;;-143.99;100.00;64180.81;6146428;28;20253;-73
2023/04/25 03:27:41;;;;;;;8.77;2.60;;;;;;;-143.99;100.00;64180.81;6150122;28;20239;-73
2023/04/25 03:31:02;;;;;;;6.47;3.67;;;;;;;-143.99;100.00;64180.81;6146570;28;20783;-73
2023/04/25 03:34:23;;;;;;;6.70;2.53;;;;;;;-143.99;100.00;64180.81;6135076;28;20227;-72
2023/04/25 03:37:46;;;;;;;6.73;2.60;;;;;;;-143.99;100.00;64180.81;6135344;28;20231;-72
2023/04/25 03:41:10;;;;;;;7.13;3.93;;;;;;;-143.99;100.00;64180.81;6147260;28;20481;-74
2023/04/25 03:44:38;;;;;;;7.00;2.90;;;;;;;-143.99;100.00;64180.81;6148292;28;20227;-72
2023/04/25 03:48:00;;;;;;;7.07;3.10;;;;;;;-143.99;100.00;64180.81;6140053;28;20345;-73
2023/04/25 03:51:22;;;;;;;4.23;2.97;;;;;;;-143.99;100.00;64180.81;6151591;28;20676;-73
2023/04/25 03:54:45;;;;;;;5.90;2.50;;;;;;;-143.99;100.00;64180.81;6148605;28;20242;-72
2023/04/25 03:58:09;;;;;;;10.50;4.50;;;;;;;-143.99;100.00;64180.81;6140066;28;20238;-73
2023/04/25 04:01:31;;;;;;;5.37;3.43;;;;;;;-143.99;100.00;64180.81;6136954;28;20326;-72
2023/04/25 04:04:52;;;;;;;6.40;2.23;;;;;;;-143.99;100.00;64180.81;6150472;28;20232;-73
2023/04/25 04:08:13;;;;;;;5.90;3.33;;;;;;;-143.99;100.00;64180.81;6140185;28;20239;-73
2023/04/25 04:11:38;;;;;;;12.80;2.53;;;;;;;-143.99;100.00;64180.81;6143787;28;20301;-73
2023/04/25 04:14:58;;;;;;;7.53;4.40;;;;;;;-143.99;100.00;64180.81;6138740;28;20250;-72
2023/04/25 04:18:19;;;;;;;5.00;3.27;;;;;;;-143.99;100.00;64180.81;6135998;28;20242;-73
2023/04/25 04:21:40;;;;;;;6.27;3.13;;;;;;;-143.99;100.00;64180.81;6131354;28;20243;-73
2023/04/25 04:25:02;;;;;;;5.93;2.83;;;;;;;-143.99;100.00;64180.81;6145352;28;20242;-72
2023/04/25 04:28:43;;;;;;;11.83;3.10;;;;;;;-143.99;100.00;64180.81;6127757;28;20759;-72
2023/04/25 04:32:40;;;;;;;6.17;2.23;;;;;;;-143.99;100.00;64180.81;6130442;28;20266;-72
2023/04/25 04:36:02;;;;;;;4.97;1.73;;;;;;;-143.99;100.00;64180.81;6144872;28;20233;-72
2023/04/25 04:39:24;;;;;;;10.53;2.43;;;;;;;-143.99;100.00;64180.81;6147554;28;20238;-72
2023/04/25 04:42:57;;;;;;;5.63;3.10;;;;;;;-143.99;100.00;64180.81;6136587;28;20234;-73
2023/04/25 04:46:41;;;;;;;7.17;2.60;;;;;;;-143.99;100.00;64180.81;6143423;28;20230;-72
2023/04/25 04:50:20;;;;;;;3.60;2.33;;;;;;;-143.99;100.00;64180.81;6136638;28;20239;-74
2023/04/25 04:54:02;;;;;;;5.97;2.00;;;;;;;-143.99;100.00;64180.81;6138878;28;20242;-73
2023/04/25 04:57:34;;;;;;;5.87;2.83;;;;;;;-143.99;100.00;64180.81;6140642;28;20232;-73
2023/04/25 05:01:07;;;;;;;4.73;2.43;;;;;;;-143.99;100.00;64180.81;6137565;28;20235;-73
2023/04/25 05:04:51;;;;;;;3.63;2.00;;;;;;;-143.99;100.00;64180.81;6132105;28;21993;-73
2023/04/25 05:08:23;;;;;;;9.87;3.30;;;;;;;-143.99;100.00;64180.81;6136146;28;20243;-74
2023/04/25 05:11:57;;;;;;;5.27;2.63;;;;;;;-143.99;100.00;64180.81;6127203;28;20243;-74
2023/04/25 05:15:30;;;;;;;5.27;2.37;;;;;;;-143.99;100.00;64180.81;6126623;28;20243;-74
2023/04/25 05:19:20;;;;;;;7.17;3.20;;;;;;;-143.99;100.00;64180.81;6120235;28;20227;-69
2023/04/25 05:22:48;;;;;;;5.07;2.10;;;;;;;-143.99;100.00;64180.81;6134291;28;20228;-70
2023/04/25 05:26:30;;;;;;;5.63;2.10;;;;;;;-143.99;100.00;64180.81;6135002;28;20267;-69
2023/04/25 05:30:14;;;;;;;5.53;2.73;;;;;;;-143.99;100.00;64180.81;6126406;28;20326;-70
2023/04/25 05:34:01;;;;;;;7.20;2.53;;;;;;;-143.99;100.00;64180.81;6145704;28;20257;-70
2023/04/25 05:37:33;;;;;;;5.17;1.83;;;;;;;-143.99;100.00;64180.81;6144032;28;20297;-70
2023/04/25 05:41:05;;;;;;;3.60;1.87;;;;;;;-143.99;100.00;64180.81;6139772;28;20647;-70
2023/04/25 05:44:42;;;;;;;6.77;2.57;;;;;;;-143.99;100.00;64180.81;6142753;28;20231;-70
2023/04/25 05:48:19;;;;;;;3.63;1.90;;;;;;;-143.99;100.00;64180.81;6136157;28;20239;-70
2023/04/25 05:52:10;;;;;;;5.97;3.83;;;;;;;-143.99;100.00;64180.81;6132671;28;20240;-70
2023/04/25 05:55:41;;;;;;;5.13;1.77;;;;;;;-143.99;100.00;64180.81;6135776;28;21231;-70
2023/04/25 05:59:21;;;;;;;10.27;3.13;;;;;;;-143.99;100.00;64180.81;6144220;28;20317;-70
2023/04/25 06:02:42;;;;;;;5.13;1.93;;;;;;;-143.99;100.00;64180.81;6142789;28;20227;-73
2023/04/25 06:06:05;;;;;;;3.07;2.07;;;;;;;-143.99;100.00;64180.81;6137869;28;20222;-71
2023/04/25 06:09:26;;;;;;;11.47;2.67;;;;;;;-143.99;100.00;64180.81;6137737;28;20821;-71
2023/04/25 06:12:48;;;;;;;5.20;2.67;;;;;;;-143.99;100.00;64180.81;6148809;28;20318;-75
2023/04/25 06:16:12;;;;;;;7.07;2.10;;;;;;;-143.99;100.00;64180.81;6147946;28;20586;-72
2023/04/25 06:19:33;;;;;;;2.17;1.70;;;;;;;-143.99;100.00;64180.81;6140822;28;20238;-71
2023/04/25 06:22:54;;;;;;;3.07;1.63;;;;;;;-143.99;100.00;64180.81;6146401;28;20611;-71
2023/04/25 06:26:21;;;;;;;6.67;2.30;;;;;;;-143.99;100.00;64180.81;6147639;28;20243;-72
2023/04/25 06:29:43;;;;;;;8.27;2.23;;;;;;;-143.99;100.00;64180.81;6143410;28;20230;-72
2023/04/25 06:33:05;;;;;;;2.97;1.87;;;;;;;-143.99;100.00;64180.81;6139006;28;20322;-72
2023/04/25 06:36:27;;;;;;;3.97;1.90;;;;;;;-143.99;100.00;64180.81;6142854;28;20232;-72
2023/04/25 06:39:52;;;;;;;10.53;3.90;;;;;;;-143.99;100.00;64180.81;6151592;28;20332;-72
2023/04/25 06:43:13;;;;;;;4.37;2.07;;;;;;;-143.99;100.00;64180.81;6132671;28;20231;-70
2023/04/25 06:46:59;;;;;;;4.27;2.23;;;;;;;-143.99;100.00;64180.81;6132065;28;20243;-72
2023/04/25 06:50:21;;;;;;;5.83;1.80;;;;;;;-143.99;100.00;64180.81;6146452;28;20259;-71
2023/04/25 06:53:42;;;;;;;4.60;1.70;;;;;;;-143.99;100.00;64180.81;6127098;28;20234;-71
2023/04/25 06:57:09;;;;;;;3.33;1.93;;;;;;;-143.99;100.00;64180.81;6154513;28;20226;-71
2023/04/25 07:00:33;;;;;;;8.90;1.90;;;;;;;-143.99;100.00;64180.81;6130587;28;20824;-73
2023/04/25 07:03:54;;;;;;;3.80;2.10;;;;;;;-143.99;100.00;64180.81;6132365;28;20786;-73
2023/04/25 07:07:16;;;;;;;4.43;1.60;;;;;;;-143.99;100.00;64180.81;6142730;28;20625;-72
2023/04/25 07:10:47;;;;;;;4.53;1.77;;;;;;;-143.99;100.00;64180.81;6133054;28;20233;-72
2023/04/25 07:14:08;;;;;;;2.80;2.37;;;;;;;-143.99;100.00;64180.81;6139872;28;20230;-69
2023/04/25 07:17:29;;;;;;;4.17;2.33;;;;;;;-143.99;100.00;64180.81;6140525;28;20247;-72
2023/04/25 07:20:51;;;;;;;2.40;2.17;;;;;;;-143.99;100.00;64180.81;6135152;28;20243;-72
2023/04/25 07:24:14;;;;;;;4.63;4.20;;;;;;;-143.99;100.00;64180.81;6152990;28;20238;-73
2023/04/25 07:27:39;;;;;;;1.50;1.30;;;;;;;-143.99;100.00;64180.81;6145334;28;20238;-70
2023/04/25 07:31:06;;;;;;;4.47;1.90;;;;;;;-143.99;100.00;64180.81;6143370;28;20272;-73
2023/04/25 07:34:27;;;;;;;1.77;1.67;;;;;;;-143.99;100.00;64180.81;6145033;28;20230;-72
2023/04/25 07:37:48;;;;;;;5.00;3.57;;;;;;;-143.99;100.00;64180.81;6144926;28;20243;-69
2023/04/25 07:41:14;;;;;;;3.63;1.40;;;;;;;-143.99;100.00;64180.81;6146664;28;20243;-74
2023/04/25 07:44:38;;;;;;;3.57;1.73;;;;;;;-143.99;100.00;64180.81;6142151;28;20227;-74
2023/04/25 07:48:00;;;;;;;6.23;1.90;;;;;;;-143.99;100.00;64180.81;6120943;28;20227;-72
2023/04/25 07:51:22;;;;;;;5.90;2.53;;;;;;;-143.99;100.00;64180.81;6137412;28;20247;-72
2023/04/25 07:54:44;;;;;;;4.30;1.30;;;;;;;-143.99;100.00;64180.81;6142327;28;20234;-73
2023/04/25 07:58:12;;;;;;;9.07;2.03;;;;;;;-143.99;100.00;64180.81;6136480;28;20235;-72
2023/04/25 08:01:36;;;;;;;2.03;1.47;;;;;;;-143.99;100.00;64180.81;6142679;28;20239;-73
2023/04/25 08:04:58;;;;;;;5.23;2.07;;;;;;;-143.99;100.00;64180.81;6145578;28;20306;-71
2023/04/25 08:08:20;;;;;;;3.40;1.90;;;;;;;-143.99;100.00;64180.81;6148029;28;20249;-73
2023/04/25 08:11:41;;;;;;;4.07;2.30;;;;;;;-143.99;100.00;64180.81;6126841;28;20613;-74
2023/04/25 08:15:07;;;;;;;3.37;1.77;;;;;;;-143.99;100.00;64180.81;6137518;28;20237;-71
2023/04/25 08:18:31;;;;;;;2.80;1.30;;;;;;;-143.99;100.00;64180.81;6135722;28;20349;-71
2023/04/25 08:21:52;;;;;;;3.93;1.67;;;;;;;-143.99;100.00;64180.81;6139378;28;20241;-74
2023/04/25 08:25:19;;;;;;;7.80;2.00;;;;;;;-143.99;100.00;64180.81;6136908;28;20238;-71
2023/04/25 08:28:41;;;;;;;3.37;1.83;;;;;;;-143.99;100.00;64180.81;6144272;28;20234;-70
2023/04/25 08:32:03;;;;;;;6.33;2.57;;;;;;;-143.99;100.00;64180.81;6143178;28;20519;-69
2023/04/25 08:35:25;;;;;;;2.07;1.67;;;;;;;-143.99;100.00;64180.81;6124152;28;20235;-69
2023/04/25 08:38:46;;;;;;;5.10;2.53;;;;;;;-143.99;100.00;64180.81;6131295;28;20234;-71
2023/04/25 08:42:08;;;;;;;8.67;1.93;;;;;;;-143.99;100.00;64180.81;6140358;28;20243;-71
2023/04/25 08:45:32;;;;;;;1.93;1.00;;;;;;;-143.99;100.00;64180.81;6132436;28;20519;-72
2023/04/25 08:49:00;;;;;;;7.17;1.97;;;;;;;-143.99;100.00;64180.81;6142360;28;20234;-74
2023/04/25 08:52:23;;;;;;;3.13;1.40;;;;;;;-143.99;100.00;64180.81;6144480;28;20231;-73
2023/04/25 08:55:46;;;;;;;2.50;2.30;;;;;;;-143.99;100.00;64180.81;6125544;28;20227;-71
2023/04/25 08:59:07;;;;;;;2.33;2.03;;;;;;;-143.99;100.00;64180.81;6127734;28;20372;-72
2023/04/25 09:02:30;;;;;;;4.00;1.20;;;;;;;-143.99;100.00;64180.81;6142598;28;20243;-71
2023/04/25 09:05:53;;;;;;;5.60;2.20;;;;;;;-143.99;100.00;64180.81;6141856;28;20453;-70
2023/04/25 09:09:15;;;;;;;3.27;1.13;;;;;;;-143.99;100.00;64180.81;6131717;28;20317;-71
2023/04/25 09:12:36;;;;;;;2.03;1.20;;;;;;;-143.99;100.00;64180.81;6136937;28;20239;-67
2023/04/25 09:15:58;;;;;;;2.27;1.40;;;;;;;-143.99;100.00;64180.81;6134085;28;20621;-70
2023/04/25 09:19:46;;;;;;;2.27;1.83;;;;;;;-143.99;100.00;64180.81;6119773;28;20226;-70
2023/04/25 09:23:15;;;;;;;2.63;2.43;;;;;;;-143.99;100.00;64180.81;6133138;28;20239;-71
2023/04/25 09:26:36;;;;;;;5.97;2.70;;;;;;;-143.99;100.00;64180.81;6161906;28;20227;-70
2023/04/25 09:30:00;;;;;;;1.60;1.07;;;;;;;-143.99;100.00;64180.81;6140897;28;20235;-69
2023/04/25 09:33:28;;;;;;;4.20;1.43;;;;;;;-143.99;100.00;64180.81;6142433;28;20235;-71
2023/04/25 09:36:50;;;;;;;7.30;1.43;;;;;;;-143.99;100.00;64180.81;6146413;28;20235;-70
2023/04/25 09:40:26;;;;;;;2.03;1.50;;;;;;;-143.99;100.00;64180.81;6149498;28;20312;-71
2023/04/25 09:44:00;;;;;;;3.70;1.37;;;;;;;-143.99;100.00;64180.81;6149865;28;20214;-72
2023/04/25 09:47:26;;;;;;;1.80;1.47;;;;;;;-143.99;100.00;64180.81;6153314;28;20318;-72
2023/04/25 09:51:05;;;;;;;2.53;1.70;;;;;;;-143.99;100.00;64180.81;6138066;28;20239;-72
2023/04/25 09:54:26;;;;;;;5.60;1.40;;;;;;;-143.99;100.00;64180.81;6149806;28;20219;-71
2023/04/25 09:58:06;;;;;;;17.93;1.73;;;;;;;-143.99;100.00;64180.81;6130525;28;20262;-70
2023/04/25 10:01:28;;;;;;;4.50;1.93;;;;;;;-143.99;100.00;64180.81;6142136;28;20239;-70
2023/04/25 10:05:03;;;;;;;3.53;1.80;;;;;;;-143.99;100.00;64180.81;6128085;28;20224;-71
2023/04/25 10:08:33;;;;;;;2.60;1.70;;;;;;;-143.99;100.00;64180.81;6130314;28;20238;-71
2023/04/25 10:11:56;;;;;;;11.43;1.40;;;;;;;-143.99;100.00;64180.81;6137285;28;20246;-71
2023/04/25 10:15:18;;;;;;;1.30;0.80;;;;;;;-143.99;100.00;64180.81;6136469;28;20593;-71
2023/04/25 10:18:39;;;;;;;2.47;2.00;;;;;;;-143.99;100.00;64180.81;6131556;28;20227;-71
2023/04/25 10:22:06;;;;;;;1.80;0.80;;;;;;;-143.99;100.00;64180.81;6148080;28;20239;-71
2023/04/25 10:25:28;;;;;;;3.57;1.67;;;;;;;-143.99;100.00;64180.81;6142736;28;20616;-72
2023/04/25 10:28:59;;;;;;;2.30;1.97;;;;;;;-143.99;100.00;64180.81;6138984;28;20663;-71
2023/04/25 10:32:21;;;;;;;2.97;2.53;;;;;;;-143.99;100.00;64180.81;6138811;28;20230;-71
2023/04/25 10:35:42;;;;;;;2.87;1.43;;;;;;;-143.99;100.00;64180.81;6131476;28;20243;-71
2023/04/25 10:39:07;;;;;;;1.80;0.90;;;;;;;-143.99;100.00;64180.81;6134320;28;20571;-72
2023/04/25 10:42:29;;;;;;;8.47;1.97;;;;;;;-143.99;100.00;64180.81;6145496;28;20247;-72
2023/04/25 10:45:52;;;;;;;5.83;2.27;;;;;;;-143.99;100.00;64180.81;6135465;28;20345;-71
2023/04/25 10:49:30;;;;;;;1.33;0.93;;;;;;;-143.99;100.00;64180.81;6133962;28;20600;-70
2023/04/25 10:52:51;;;;;;;5.23;2.33;;;;;;;-143.99;100.00;64180.81;6125434;28;20243;-71
2023/04/25 10:56:14;;;;;;;7.10;2.60;;;;;;;-143.99;100.00;64180.81;6126626;28;20318;-70
2023/04/25 10:59:35;;;;;;;1.90;1.33;;;;;;;-143.99;100.00;64180.81;6123243;28;20243;-71
2023/04/25 11:02:59;;;;;;;6.87;2.33;;;;;;;-143.99;100.00;64180.81;6128195;28;20266;-70
2023/04/25 11:06:27;;;;;;;4.10;2.27;;;;;;;-143.99;100.00;64180.81;6140702;28;20223;-71
2023/04/25 11:09:48;;;;;;;2.00;1.60;;;;;;;-143.99;100.00;64180.81;6137708;28;20230;-70
2023/04/25 11:13:09;;;;;;;1.57;1.07;;;;;;;-143.99;100.00;64180.81;6134605;28;20234;-72
2023/04/25 11:16:30;;;;;;;2.93;1.37;;;;;;;-143.99;100.00;64180.81;6148570;28;20246;-71
2023/04/25 11:19:51;;;;;;;3.30;1.37;;;;;;;-143.99;100.00;64180.81;6131052;28;20234;-71
2023/04/25 11:23:13;;;;;;;1.43;1.30;;;;;;;-143.99;100.00;64180.81;6118745;28;20234;-71
2023/04/25 11:26:37;;;;;;;2.90;1.63;;;;;;;-143.99;100.00;64180.81;6141899;28;20235;-70
2023/04/25 11:29:58;;;;;;;3.10;1.20;;;;;;;-143.99;100.00;64180.81;6134578;28;20242;-74
2023/04/25 11:33:23;;;;;;;5.23;1.10;;;;;;;-143.99;100.00;64180.81;6130680;28;20247;-72
2023/04/25 11:36:46;;;;;;;5.33;1.53;;;;;;;-143.99;100.00;64180.81;6144518;28;20250;-72
2023/04/25 11:40:09;;;;;;;14.63;2.73;;;;;;;-143.99;100.00;64180.81;6134282;28;20242;-70
2023/04/25 11:43:30;;;;;;;3.27;1.00;;;;;;;-143.99;100.00;64180.81;6121840;28;20245;-71
2023/04/25 11:46:51;;;;;;;2.33;1.40;;;;;;;-143.99;100.00;64180.81;6133194;28;20262;-72
2023/04/25 11:50:14;;;;;;;2.07;1.27;;;;;;;-143.99;100.00;64180.81;6139415;28;20234;-70
2023/04/25 11:53:36;;;;;;;2.13;1.50;;;;;;;-143.99;100.00;64180.81;6125088;28;20229;-71
2023/04/25 11:56:58;;;;;;;2.07;0.80;;;;;;;-143.99;100.00;64180.81;6132502;28;20239;-73
2023/04/25 12:00:20;;;;;;;1.57;0.73;;;;;;;-143.99;100.00;64180.81;6135814;28;20593;-72
2023/04/25 12:03:46;;;;;;;1.60;1.50;;;;;;;-143.99;100.00;64180.81;6127994;28;20276;-71
2023/04/25 12:07:10;;;;;;;1.47;1.37;;;;;;;-143.99;100.00;64180.81;6134500;28;20239;-70
2023/04/25 12:10:31;;;;;;;2.23;1.40;;;;;;;-143.99;100.00;64180.81;6132962;28;20517;-73
2023/04/25 12:13:54;;;;;;;1.30;0.73;;;;;;;-143.99;100.00;64180.81;6144913;28;20234;-73
2023/04/25 12:17:15;;;;;;;3.10;1.97;;;;;;;-143.99;100.00;64180.81;6142201;28;20235;-72
2023/04/25 12:20:36;;;;;;;5.80;1.77;;;;;;;-143.99;100.00;64180.81;6132636;28;20609;-72
2023/04/25 12:23:57;;;;;;;0.87;0.63;;;;;;;-143.99;100.00;64180.81;6136006;28;20238;-72
2023/04/25 12:27:18;;;;;;;0.53;0.53;;;;;;;-143.99;100.00;64180.81;6140906;28;20231;-72
2023/04/25 12:30:55;;;;;;;1.70;0.80;;;;;;;-143.99;100.00;64180.81;6138961;28;20517;-73
2023/04/25 12:34:16;;;;;;;1.87;0.80;;;;;;;-143.99;100.00;64180.81;6120891;28;20234;-72
2023/04/25 12:37:37;;;;;;;1.30;0.80;;;;;;;-143.99;100.00;64180.81;6140708;28;20231;-75
2023/04/25 12:40:58;;;;;;;3.80;1.03;;;;;;;-143.99;100.00;64180.81;6127827;28;20591;-72
2023/04/25 12:44:19;;;;;;;4.07;1.70;;;;;;;-143.99;100.00;64180.81;6132231;28;20325;-72
2023/04/25 12:47:42;;;;;;;0.83;0.53;;;;;;;-143.99;100.00;64180.81;6142043;28;20335;-74
2023/04/25 12:51:03;;;;;;;2.00;0.73;;;;;;;-143.99;100.00;64180.81;6141989;28;20330;-72
2023/04/25 12:54:24;;;;;;;0.80;0.50;;;;;;;-143.99;100.00;64180.81;6128454;28;20234;-69
2023/04/25 12:57:45;;;;;;;1.43;1.33;;;;;;;-143.99;100.00;64180.81;6130876;28;20230;-75
2023/04/25 13:01:06;;;;;;;3.87;1.10;;;;;;;-143.99;100.00;64180.81;6131005;28;20318;-73
2023/04/25 13:04:29;;;;;;;1.77;1.37;;;;;;;-143.99;100.00;64180.81;6136423;28;20230;-68
2023/04/25 13:07:51;;;;;;;1.33;1.23;;;;;;;-143.99;100.00;64180.81;6132676;28;20267;-72
2023/04/25 13:11:12;;;;;;;4.17;0.93;;;;;;;-143.99;100.00;64180.81;6133646;28;20799;-71
2023/04/25 13:14:33;;;;;;;1.63;0.90;;;;;;;-143.99;100.00;64180.81;6140950;28;20246;-73
2023/04/25 13:17:53;;;;;;;5.00;1.17;;;;;;;-143.99;100.00;64180.81;6131245;28;20235;-70
2023/04/25 13:21:16;;;;;;;2.60;1.10;;;;;;;-143.99;100.00;64180.81;6134710;28;20247;-74
2023/04/25 13:24:36;;;;;;;1.70;1.33;;;;;;;-143.99;100.00;64180.81;6142188;28;20600;-75
2023/04/25 13:27:58;;;;;;;3.37;0.70;;;;;;;-143.99;100.00;64180.81;6139093;28;20238;-71
2023/04/25 13:31:18;;;;;;;1.53;1.43;;;;;;;-143.99;100.00;64180.81;6132553;28;20231;-76
2023/04/25 13:34:40;;;;;;;1.27;0.90;;;;;;;-143.99;100.00;64180.81;6145074;28;20254;-74
2023/04/25 13:38:03;;;;;;;2.67;1.27;;;;;;;-143.99;100.00;64180.81;6138080;28;20227;-73
2023/04/25 13:41:23;;;;;;;1.70;0.90;;;;;;;-143.99;100.00;64180.81;6152744;28;20317;-74
2023/04/25 13:44:44;;;;;;;4.17;1.30;;;;;;;-143.99;100.00;64180.81;6141109;28;20262;-69
2023/04/25 13:48:08;;;;;;;5.13;1.60;;;;;;;-143.99;100.00;64180.81;6128759;28;20254;-72
2023/04/25 13:51:30;;;;;;;6.57;1.03;;;;;;;-143.99;100.00;64180.81;6145970;28;20298;-74
2023/04/25 13:54:52;;;;;;;10.03;2.80;;;;;;;-143.99;100.00;64180.81;6141589;28;20238;-73
2023/04/25 13:58:13;;;;;;;1.97;1.20;;;;;;;-143.99;100.00;64180.81;6123065;28;20234;-70
2023/04/25 14:01:35;;;;;;;4.23;1.30;;;;;;;-143.99;100.00;64180.81;6144172;28;20238;-74
2023/04/25 14:04:56;;;;;;;1.47;1.30;;;;;;;-143.99;100.00;64180.81;6143588;28;20231;-74
2023/04/25 14:08:17;;;;;;;1.67;0.80;;;;;;;-143.99;100.00;64180.81;6122085;28;20231;-74
2023/04/25 14:11:39;;;;;;;2.17;1.43;;;;;;;-143.99;100.00;64180.81;6145705;28;20239;-71
2023/04/25 14:15:00;;;;;;;1.90;1.70;;;;;;;-143.99;100.00;64180.81;6142708;28;20254;-71
2023/04/25 14:18:21;;;;;;;6.03;2.17;;;;;;;-143.99;100.00;64180.81;6128930;28;20238;-73
2023/04/25 14:21:42;;;;;;;3.07;1.97;;;;;;;-143.99;100.00;64180.81;6145088;28;20227;-74
2023/04/25 14:25:05;;;;;;;4.00;1.23;;;;;;;-143.99;100.00;64180.81;6137328;28;20258;-76
2023/04/25 14:28:27;;;;;;;2.47;1.30;;;;;;;-143.99;100.00;64180.81;6139113;28;20226;-75
2023/04/25 14:31:48;;;;;;;4.07;1.73;;;;;;;-143.99;100.00;64180.81;6125395;28;20622;-75
2023/04/25 14:35:10;;;;;;;5.40;2.10;;;;;;;-143.99;100.00;64180.81;6141666;28;20325;-74
2023/04/25 14:38:30;;;;;;;4.37;1.23;;;;;;;-143.99;100.00;64180.81;6134957;28;20230;-74
2023/04/25 14:41:51;;;;;;;1.07;0.73;;;;;;;-143.99;100.00;64180.81;6148499;28;20240;-74
2023/04/25 14:45:13;;;;;;;2.70;0.80;;;;;;;-143.99;100.00;64180.81;6143743;28;20796;-73
2023/04/25 14:48:35;;;;;;;1.47;1.27;;;;;;;-143.99;100.00;64180.81;6131154;28;20317;-73
2023/04/25 14:51:56;;;;;;;4.83;1.53;;;;;;;-143.99;100.00;64180.81;6146079;28;20310;-73
2023/04/25 14:55:16;;;;;;;2.57;1.13;;;;;;;-143.99;100.00;64180.81;6145931;28;20234;-73
2023/04/25 14:58:38;;;;;;;1.67;1.47;;;;;;;-143.99;100.00;64180.81;6135447;28;20255;-73
2023/04/25 15:02:01;;;;;;;3.20;0.97;;;;;;;-143.99;100.00;64180.81;6135678;28;20247;-73
2023/04/25 15:05:21;;;;;;;1.43;1.33;;;;;;;-143.99;100.00;64180.81;6127168;28;20243;-73
2023/04/25 15:08:42;;;;;;;1.63;1.27;;;;;;;-143.99;100.00;64180.81;6126259;28;20247;-73
2023/04/25 15:12:03;;;;;;;4.80;1.53;;;;;;;-143.99;100.00;64180.81;6132608;28;20243;-74
2023/04/25 15:15:25;;;;;;;4.57;2.40;;;;;;;-143.99;100.00;64180.81;6134142;28;20254;-73
2023/04/25 15:18:47;;;;;;;4.93;2.23;;;;;;;-143.99;100.00;64180.81;6126066;28;20227;-73
2023/04/25 15:22:09;;;;;;;3.23;2.73;;;;;;;-143.99;100.00;64180.81;6134232;28;20267;-74
2023/04/25 15:25:30;;;;;;;4.17;2.57;;;;;;;-143.99;100.00;64180.81;6130620;28;20313;-73
2023/04/25 15:28:52;;;;;;;4.50;1.73;;;;;;;-143.99;100.00;64180.81;6123077;28;20226;-74